Kingman Township, Maine
Current Conditions -  °F | °C
As of 10:53 AM on Thursday 27 Nov 2014 (Local Time) from KMLT Reporting Station
Overcast Overcast  
Wind Chill: 18°   Ceiling: 7000
Heat Index: 29°   Visibility: 10mi
Dew Point: 20°   Wind: 15mph
Humidity: 69%   Direction: 360°N
Pressure: 29.84"   Gusts: 24mph
Location:  45.6117°N, 68.2294°W
Report Text: KMLT 271553Z AUTO 36013G21KT 10SM FEW024 OVC070 M02/M07 A2984 RMK AO2 SLP116 T10171067 $
Loading
Personal Weather Stations






























Interactive Weather Map New forecast layout! Learn more

10-Day Weather Forecast

Advertisements
Track Severe Weather on mobile